Time;durP1;ratioP1;P1;durP2;ratioP2;P2;SDS_P1;SDS_P2;PMS_P1;PMS_P2;Temp;Humidity;BMP_temperature;BMP_pressure;BME280_temperature;BME280_humidity;BME280_pressure;Samples;Min_cycle;Max_cycle;Signal;HPM_P1;HPM_P2
2023/08/13 00:00:43;;;;;;;5.60;0.70;;;;;;;;;;5064232;28;20048;-73
2023/08/13 00:03:14;;;;;;;1.20;0.45;;;;;;;;;;5064019;28;20392;-73
2023/08/13 00:05:47;;;;;;;3.13;0.80;;;;;;;;;;5064101;28;20620;-73
2023/08/13 00:08:17;;;;;;;4.40;0.80;;;;;;;;;;5063225;28;20834;-73
2023/08/13 00:10:48;;;;;;;2.53;0.60;;;;;;;;;;5064588;28;20055;-74
2023/08/13 00:13:19;;;;;;;1.85;0.50;;;;;;;;;;5064603;28;20067;-73
2023/08/13 00:15:50;;;;;;;5.85;0.70;;;;;;;;;;5064066;28;20048;-73
2023/08/13 00:18:21;;;;;;;2.17;0.60;;;;;;;;;;5064306;28;20044;-74
2023/08/13 00:20:51;;;;;;;3.47;0.70;;;;;;;;;;5063779;28;20068;-74
2023/08/13 00:23:22;;;;;;;6.47;0.80;;;;;;;;;;5063779;28;20032;-74
2023/08/13 00:25:52;;;;;;;2.72;0.57;;;;;;;;;;5063867;28;20057;-73
2023/08/13 00:28:23;;;;;;;3.38;0.73;;;;;;;;;;5063679;28;20098;-74
2023/08/13 00:30:54;;;;;;;1.25;0.73;;;;;;;;;;5064142;28;20056;-73
2023/08/13 00:33:25;;;;;;;5.43;0.85;;;;;;;;;;5065337;28;20506;-73
2023/08/13 00:36:02;;;;;;;5.18;0.90;;;;;;;;;;5063598;28;20052;-73
2023/08/13 00:38:34;;;;;;;6.45;0.40;;;;;;;;;;5061208;28;20542;-73
2023/08/13 00:41:04;;;;;;;4.10;0.57;;;;;;;;;;5064140;28;20041;-73
2023/08/13 00:43:37;;;;;;;3.58;0.60;;;;;;;;;;5062047;28;20049;-73
2023/08/13 00:46:09;;;;;;;1.17;0.52;;;;;;;;;;5062298;28;20403;-74
2023/08/13 00:48:40;;;;;;;1.58;0.50;;;;;;;;;;5064054;28;20415;-73
2023/08/13 00:51:12;;;;;;;3.05;0.43;;;;;;;;;;5062345;28;20415;-73
2023/08/13 00:53:47;;;;;;;5.22;0.60;;;;;;;;;;5063536;28;20055;-74
2023/08/13 00:56:18;;;;;;;1.63;0.45;;;;;;;;;;5063343;28;20060;-73
2023/08/13 00:58:51;;;;;;;4.07;0.50;;;;;;;;;;5045760;28;20060;-74
2023/08/13 01:01:21;;;;;;;4.60;0.40;;;;;;;;;;5062437;28;20523;-75
2023/08/13 01:03:51;;;;;;;1.58;0.50;;;;;;;;;;5061233;28;20056;-73
2023/08/13 01:06:52;;;;;;;2.92;0.60;;;;;;;;;;5061220;28;20542;-73
2023/08/13 01:09:39;;;;;;;2.10;0.40;;;;;;;;;;5061309;28;20052;-73
2023/08/13 01:12:16;;;;;;;2.42;0.75;;;;;;;;;;5062947;28;20142;-74
2023/08/13 01:14:53;;;;;;;4.75;0.65;;;;;;;;;;5063525;28;20526;-73
2023/08/13 01:17:26;;;;;;;1.52;0.60;;;;;;;;;;5061587;28;20078;-74
2023/08/13 01:19:59;;;;;;;3.25;0.77;;;;;;;;;;5063189;28;20106;-73
2023/08/13 01:22:37;;;;;;;2.70;0.70;;;;;;;;;;5061382;28;20053;-73
2023/08/13 01:25:25;;;;;;;7.93;0.75;;;;;;;;;;5062054;28;20060;-73
2023/08/13 01:28:40;;;;;;;1.27;0.63;;;;;;;;;;5062485;28;20048;-72
2023/08/13 01:31:18;;;;;;;;;;;;;;;;;;5063942;28;20048;-72
2023/08/13 01:33:49;;;;;;;1.90;0.82;;;;;;;;;;5061295;28;19932;-73
2023/08/13 01:36:20;;;;;;;1.60;0.80;;;;;;;;;;5063065;28;20051;-73
2023/08/13 01:38:54;;;;;;;2.15;0.90;;;;;;;;;;5062999;28;20048;-73
2023/08/13 01:41:44;;;;;;;3.15;1.00;;;;;;;;;;5060011;28;20415;-74
2023/08/13 01:44:15;;;;;;;1.33;0.90;;;;;;;;;;5062102;28;20053;-72
2023/08/13 01:46:45;;;;;;;;;;;;;;;;;;5062192;28;20052;-72
2023/08/13 01:49:15;;;;;;;4.20;0.93;;;;;;;;;;5059880;28;20479;-73
2023/08/13 01:51:47;;;;;;;6.03;1.13;;;;;;;;;;5061957;28;20936;-73
2023/08/13 01:54:17;;;;;;;7.50;1.33;;;;;;;;;;5061050;28;20400;-73
2023/08/13 01:56:48;;;;;;;11.18;1.40;;;;;;;;;;5061781;28;20056;-73
2023/08/13 01:59:17;;;;;;;;;;;;;;;;;;5061289;28;20415;-73
2023/08/13 02:01:48;;;;;;;3.63;0.90;;;;;;;;;;5060239;28;19931;-73
2023/08/13 02:04:19;;;;;;;7.82;1.00;;;;;;;;;;5061936;28;20051;-73
2023/08/13 02:06:49;;;;;;;1.65;0.85;;;;;;;;;;5062585;28;20040;-74
2023/08/13 02:09:20;;;;;;;2.33;0.75;;;;;;;;;;5061386;28;20423;-74
2023/08/13 02:11:52;;;;;;;8.52;1.17;;;;;;;;;;5062497;28;20053;-73
2023/08/13 02:14:22;;;;;;;10.57;1.30;;;;;;;;;;5061776;28;20052;-73
2023/08/13 02:16:53;;;;;;;3.53;0.68;;;;;;;;;;5060280;28;20423;-73
2023/08/13 02:19:23;;;;;;;2.83;1.08;;;;;;;;;;5062193;28;20044;-72
2023/08/13 02:21:54;;;;;;;5.32;1.20;;;;;;;;;;5059647;28;20059;-73
2023/08/13 02:24:25;;;;;;;2.72;1.10;;;;;;;;;;5061894;28;20048;-74
2023/08/13 02:26:55;;;;;;;8.18;1.27;;;;;;;;;;5061255;28;20487;-74
2023/08/13 02:29:31;;;;;;;3.35;1.08;;;;;;;;;;5061749;28;20043;-73
2023/08/13 02:32:04;;;;;;;6.95;1.10;;;;;;;;;;5060102;28;20055;-73
2023/08/13 02:34:43;;;;;;;1.85;0.90;;;;;;;;;;5061374;28;20051;-76
2023/08/13 02:37:14;;;;;;;2.75;0.77;;;;;;;;;;5061957;28;20052;-73
2023/08/13 02:39:44;;;;;;;2.75;0.90;;;;;;;;;;5059756;28;20048;-73
2023/08/13 02:42:17;;;;;;;7.20;1.23;;;;;;;;;;5044442;28;20503;-78
2023/08/13 02:44:49;;;;;;;4.43;0.93;;;;;;;;;;5062082;28;20522;-73
2023/08/13 02:47:20;;;;;;;2.90;0.82;;;;;;;;;;5062312;28;20048;-73
2023/08/13 02:49:49;;;;;;;;;;;;;;;;;;5061807;28;20537;-73
2023/08/13 02:52:19;;;;;;;3.17;0.85;;;;;;;;;;5061094;28;19929;-73
2023/08/13 02:54:50;;;;;;;1.92;0.63;;;;;;;;;;5061599;28;20051;-77
2023/08/13 02:57:22;;;;;;;3.80;0.70;;;;;;;;;;5044058;28;20424;-73
2023/08/13 02:59:54;;;;;;;5.15;0.73;;;;;;;;;;5061901;28;20052;-73
2023/08/13 03:02:24;;;;;;;6.97;0.85;;;;;;;;;;5063149;28;20056;-73
2023/08/13 03:04:55;;;;;;;2.60;0.80;;;;;;;;;;5064223;28;20419;-73
2023/08/13 03:07:26;;;;;;;2.67;0.80;;;;;;;;;;5063814;28;20056;-73
2023/08/13 03:09:56;;;;;;;3.60;0.95;;;;;;;;;;5065360;28;20475;-73
2023/08/13 03:12:26;;;;;;;;;;;;;;;;;;5064501;28;20500;-73
2023/08/13 03:14:57;;;;;;;4.03;0.65;;;;;;;;;;5062932;28;19925;-73
2023/08/13 03:17:29;;;;;;;1.35;0.30;;;;;;;;;;5063587;28;20052;-73
2023/08/13 03:20:00;;;;;;;1.67;0.60;;;;;;;;;;5063767;28;20060;-73
2023/08/13 03:22:30;;;;;;;5.05;0.50;;;;;;;;;;5065048;28;20055;-73
2023/08/13 03:25:00;;;;;;;;;;;;;;;;;;5064484;28;20067;-73
2023/08/13 03:27:31;;;;;;;1.60;0.73;;;;;;;;;;5065513;28;20430;-72
2023/08/13 03:30:01;;;;;;;;;;;;;;;;;;5064266;28;20656;-73
2023/08/13 03:32:32;;;;;;;3.80;0.60;;;;;;;;;;5063612;28;19928;-73
2023/08/13 03:35:03;;;;;;;5.07;0.77;;;;;;;;;;5063901;28;20056;-73
2023/08/13 03:37:34;;;;;;;4.43;0.50;;;;;;;;;;5063252;28;20064;-73
2023/08/13 03:40:05;;;;;;;;;;;;;;;;;;5063550;28;20044;-73
2023/08/13 03:42:37;;;;;;;2.60;0.43;;;;;;;;;;5063798;28;19931;-73
2023/08/13 03:45:09;;;;;;;2.85;0.80;;;;;;;;;;5063152;28;20064;-73
2023/08/13 03:47:40;;;;;;;2.80;0.57;;;;;;;;;;5062921;28;20075;-73
2023/08/13 03:50:11;;;;;;;4.88;0.60;;;;;;;;;;5063693;28;20056;-73
2023/08/13 03:52:44;;;;;;;2.72;0.65;;;;;;;;;;5062898;28;20064;-73
2023/08/13 03:55:15;;;;;;;3.33;0.40;;;;;;;;;;5063453;28;20786;-73
2023/08/13 03:57:45;;;;;;;2.25;0.50;;;;;;;;;;5062930;28;20604;-73
2023/08/13 04:00:16;;;;;;;1.52;0.63;;;;;;;;;;5062901;28;20574;-74
2023/08/13 04:02:50;;;;;;;3.63;0.73;;;;;;;;;;5063515;28;20863;-74
2023/08/13 04:05:21;;;;;;;1.50;0.50;;;;;;;;;;5064143;28;20060;-74
2023/08/13 04:07:51;;;;;;;;;;;;;;;;;;5065158;28;20056;-74
2023/08/13 04:10:22;;;;;;;1.55;0.40;;;;;;;;;;5063407;28;19928;-74
2023/08/13 04:12:56;;;;;;;1.70;0.52;;;;;;;;;;5063252;28;20045;-73
2023/08/13 04:15:30;;;;;;;4.55;0.63;;;;;;;;;;5046018;28;20052;-74
2023/08/13 04:18:01;;;;;;;3.03;0.50;;;;;;;;;;5062278;28;20063;-73
2023/08/13 04:20:32;;;;;;;4.63;1.80;;;;;;;;;;5061953;28;20060;-73
2023/08/13 04:23:02;;;;;;;8.75;1.08;;;;;;;;;;5062296;28;20056;-74
2023/08/13 04:25:33;;;;;;;5.57;0.90;;;;;;;;;;5062727;28;20067;-73
2023/08/13 04:28:03;;;;;;;3.85;0.90;;;;;;;;;;5062526;28;20083;-73
2023/08/13 04:30:39;;;;;;;1.58;0.70;;;;;;;;;;5062266;28;20052;-74
2023/08/13 04:33:10;;;;;;;3.35;0.60;;;;;;;;;;5062611;28;20499;-73
2023/08/13 04:35:40;;;;;;;4.63;0.70;;;;;;;;;;5062345;28;20052;-74
2023/08/13 04:38:11;;;;;;;4.13;0.80;;;;;;;;;;5062481;28;20396;-73
2023/08/13 04:40:49;;;;;;;0.98;0.63;;;;;;;;;;5062335;28;20913;-74
2023/08/13 04:43:20;;;;;;;1.83;0.47;;;;;;;;;;5062054;28;20052;-74
2023/08/13 04:45:51;;;;;;;0.88;0.52;;;;;;;;;;5062040;28;20554;-73
2023/08/13 04:48:46;;;;;;;1.27;0.55;;;;;;;;;;5062075;28;20060;-74
2023/08/13 04:51:25;;;;;;;5.50;0.98;;;;;;;;;;5062518;28;20052;-74
2023/08/13 04:53:57;;;;;;;0.80;0.60;;;;;;;;;;5062089;28;20661;-74
2023/08/13 04:56:30;;;;;;;0.80;0.65;;;;;;;;;;5062429;28;20363;-74
2023/08/13 04:59:01;;;;;;;1.02;0.63;;;;;;;;;;5063684;28;20072;-74
2023/08/13 05:01:34;;;;;;;2.97;0.90;;;;;;;;;;5062050;28;20400;-74
2023/08/13 05:04:06;;;;;;;2.75;0.85;;;;;;;;;;5062284;28;20052;-74
2023/08/13 05:06:38;;;;;;;4.40;0.95;;;;;;;;;;5060798;28;20519;-73
2023/08/13 05:09:08;;;;;;;4.18;1.02;;;;;;;;;;5063325;28;20048;-74
2023/08/13 05:11:40;;;;;;;2.60;0.88;;;;;;;;;;5061662;28;20071;-73
2023/08/13 05:14:11;;;;;;;3.15;0.88;;;;;;;;;;5062082;28;20048;-73
2023/08/13 05:16:43;;;;;;;1.05;0.80;;;;;;;;;;5061151;28;20052;-73
2023/08/13 05:19:14;;;;;;;4.18;0.90;;;;;;;;;;5061804;28;20048;-73
2023/08/13 05:21:44;;;;;;;1.85;1.00;;;;;;;;;;5062687;28;20064;-73
2023/08/13 05:24:15;;;;;;;2.15;1.02;;;;;;;;;;5060881;28;20048;-73
2023/08/13 05:26:45;;;;;;;6.28;1.23;;;;;;;;;;5063047;28;20053;-73
2023/08/13 05:29:18;;;;;;;4.57;1.05;;;;;;;;;;5060982;28;20051;-74
2023/08/13 05:31:53;;;;;;;1.25;0.95;;;;;;;;;;5060906;28;20063;-73
2023/08/13 05:34:23;;;;;;;1.75;0.90;;;;;;;;;;5060835;28;20057;-74
2023/08/13 05:36:53;;;;;;;1.98;1.27;;;;;;;;;;5060897;28;20059;-73
2023/08/13 05:39:25;;;;;;;7.30;1.23;;;;;;;;;;5061339;28;20648;-73
2023/08/13 05:41:55;;;;;;;;;;;;;;;;;;5062755;28;20529;-73
2023/08/13 05:44:27;;;;;;;2.67;1.20;;;;;;;;;;5061370;28;19931;-73
2023/08/13 05:46:58;;;;;;;3.67;1.48;;;;;;;;;;5062867;28;20047;-73
2023/08/13 05:49:28;;;;;;;2.85;1.23;;;;;;;;;;5061549;28;20048;-73
2023/08/13 05:51:59;;;;;;;4.13;1.40;;;;;;;;;;5061323;28;20056;-73
2023/08/13 05:54:29;;;;;;;10.63;1.45;;;;;;;;;;5060369;28;20040;-74
2023/08/13 05:57:00;;;;;;;4.15;1.30;;;;;;;;;;5062094;28;20048;-73
2023/08/13 05:59:29;;;;;;;;;;;;;;;;;;5062805;28;20060;-73
2023/08/13 06:01:59;;;;;;;3.17;1.50;;;;;;;;;;5062483;28;19924;-73
2023/08/13 06:04:30;;;;;;;5.28;1.10;;;;;;;;;;5063270;28;20048;-73
2023/08/13 06:07:02;;;;;;;3.65;1.30;;;;;;;;;;5062365;28;20051;-73
2023/08/13 06:09:34;;;;;;;3.05;1.33;;;;;;;;;;5061829;28;20048;-73
2023/08/13 06:12:04;;;;;;;2.55;1.23;;;;;;;;;;5061896;28;20048;-73
2023/08/13 06:14:35;;;;;;;3.20;1.50;;;;;;;;;;5061859;28;20048;-73
2023/08/13 06:17:06;;;;;;;7.03;1.42;;;;;;;;;;5062101;28;20063;-74
2023/08/13 06:19:43;;;;;;;4.25;1.55;;;;;;;;;;5062058;28;20040;-73
2023/08/13 06:22:14;;;;;;;2.90;1.27;;;;;;;;;;5062046;28;20060;-73
2023/08/13 06:24:47;;;;;;;4.43;1.13;;;;;;;;;;5061103;28;20041;-73
2023/08/13 06:27:18;;;;;;;2.65;1.50;;;;;;;;;;5062154;28;20044;-73
2023/08/13 06:29:49;;;;;;;4.65;1.30;;;;;;;;;;5061878;28;20051;-73
2023/08/13 06:32:37;;;;;;;4.07;1.00;;;;;;;;;;5060340;28;20056;-73
2023/08/13 06:35:11;;;;;;;2.72;1.00;;;;;;;;;;5061355;28;20076;-73
2023/08/13 06:37:42;;;;;;;2.80;1.30;;;;;;;;;;5062515;28;20051;-73
2023/08/13 06:40:32;;;;;;;1.90;1.20;;;;;;;;;;5061886;28;20455;-73
2023/08/13 06:43:02;;;;;;;4.78;0.93;;;;;;;;;;5060178;28;20415;-73
2023/08/13 06:45:32;;;;;;;2.28;1.10;;;;;;;;;;5061755;28;20055;-73
2023/08/13 06:48:04;;;;;;;1.08;0.93;;;;;;;;;;5062042;28;20527;-73
2023/08/13 06:50:35;;;;;;;1.17;0.95;;;;;;;;;;5062450;28;20577;-73
2023/08/13 06:53:05;;;;;;;2.17;1.02;;;;;;;;;;5062066;28;20535;-73
2023/08/13 06:55:36;;;;;;;3.00;1.05;;;;;;;;;;5061953;28;20048;-73
2023/08/13 06:58:06;;;;;;;2.38;0.95;;;;;;;;;;5062035;28;20060;-73
2023/08/13 07:00:37;;;;;;;2.25;1.23;;;;;;;;;;5061446;28;20040;-73
2023/08/13 07:03:09;;;;;;;2.45;1.05;;;;;;;;;;5061749;28;20475;-73
2023/08/13 07:05:41;;;;;;;2.60;1.20;;;;;;;;;;5061811;28;20057;-73
2023/08/13 07:08:12;;;;;;;2.78;1.15;;;;;;;;;;5059599;28;20048;-73
2023/08/13 07:10:42;;;;;;;2.25;1.10;;;;;;;;;;5061573;28;20519;-73
2023/08/13 07:13:12;;;;;;;6.03;1.73;;;;;;;;;;5061706;28;20514;-73
2023/08/13 07:15:42;;;;;;;1.70;1.00;;;;;;;;;;5059657;28;20444;-73
2023/08/13 07:18:14;;;;;;;6.90;1.02;;;;;;;;;;5061164;28;20045;-73
2023/08/13 07:20:45;;;;;;;8.02;1.70;;;;;;;;;;5058953;28;20067;-73
2023/08/13 07:23:15;;;;;;;4.50;1.30;;;;;;;;;;5061352;28;20063;-73
2023/08/13 07:25:46;;;;;;;;;;;;;;;;;;5061909;28;20059;-73
2023/08/13 07:28:16;;;;;;;1.73;1.10;;;;;;;;;;5061644;28;19935;-73
2023/08/13 07:30:47;;;;;;;3.95;0.95;;;;;;;;;;5060967;28;20052;-74
2023/08/13 07:33:18;;;;;;;2.42;0.98;;;;;;;;;;5061309;28;20063;-74
2023/08/13 07:35:50;;;;;;;6.78;1.25;;;;;;;;;;5061416;28;20491;-73
2023/08/13 07:38:21;;;;;;;3.13;1.05;;;;;;;;;;5060434;28;20041;-73
2023/08/13 07:40:56;;;;;;;3.75;1.45;;;;;;;;;;5061328;28;20052;-74
2023/08/13 07:43:27;;;;;;;3.35;1.38;;;;;;;;;;5059993;28;20080;-73
2023/08/13 07:45:58;;;;;;;6.85;1.20;;;;;;;;;;5061117;28;20032;-73
2023/08/13 07:48:29;;;;;;;4.85;1.23;;;;;;;;;;5064346;28;20061;-73
2023/08/13 07:51:00;;;;;;;2.15;1.05;;;;;;;;;;5064942;28;20095;-73
2023/08/13 07:53:31;;;;;;;12.23;1.58;;;;;;;;;;5064887;28;20048;-73
2023/08/13 07:56:02;;;;;;;4.57;1.10;;;;;;;;;;5065049;28;20044;-73
2023/08/13 07:58:33;;;;;;;3.15;1.23;;;;;;;;;;5065602;28;20056;-73
2023/08/13 08:01:05;;;;;;;3.58;1.35;;;;;;;;;;5065063;28;20543;-73
2023/08/13 08:03:36;;;;;;;3.35;1.60;;;;;;;;;;5064441;28;20419;-73
2023/08/13 08:06:06;;;;;;;4.43;1.25;;;;;;;;;;5064452;28;20047;-73
2023/08/13 08:08:37;;;;;;;2.55;1.33;;;;;;;;;;5064207;28;20542;-73
2023/08/13 08:11:08;;;;;;;3.05;1.25;;;;;;;;;;5064016;28;20601;-72
2023/08/13 08:13:39;;;;;;;4.32;1.50;;;;;;;;;;5064484;28;20048;-72
2023/08/13 08:16:08;;;;;;;3.42;1.50;;;;;;;;;;5064467;28;20055;-72
2023/08/13 08:18:39;;;;;;;5.78;1.92;;;;;;;;;;5062731;28;20059;-72
2023/08/13 08:21:12;;;;;;;4.43;1.23;;;;;;;;;;5064173;28;20044;-72
2023/08/13 08:23:43;;;;;;;2.97;1.10;;;;;;;;;;5064570;28;20053;-72
2023/08/13 08:26:13;;;;;;;5.70;1.45;;;;;;;;;;5063626;28;20048;-73
2023/08/13 08:28:42;;;;;;;;;;;;;;;;;;5064856;28;20044;-72
2023/08/13 08:31:13;;;;;;;3.85;1.52;;;;;;;;;;5063560;28;20419;-72
2023/08/13 08:33:44;;;;;;;3.40;1.27;;;;;;;;;;5064464;28;20053;-73
2023/08/13 08:36:15;;;;;;;2.00;1.15;;;;;;;;;;5062609;28;20051;-72
2023/08/13 08:38:44;;;;;;;4.90;1.48;;;;;;;;;;5064148;28;20044;-72
2023/08/13 08:41:16;;;;;;;5.95;1.30;;;;;;;;;;5063624;28;20613;-72
2023/08/13 08:43:48;;;;;;;7.03;1.40;;;;;;;;;;5063775;28;20063;-73
2023/08/13 08:46:19;;;;;;;4.10;1.30;;;;;;;;;;5064239;28;20634;-73
2023/08/13 08:48:50;;;;;;;4.05;1.42;;;;;;;;;;5064602;28;20476;-73
2023/08/13 08:51:22;;;;;;;3.13;1.45;;;;;;;;;;5063629;28;20680;-73
2023/08/13 08:53:54;;;;;;;3.40;1.73;;;;;;;;;;5064643;28;20052;-73
2023/08/13 08:56:26;;;;;;;5.50;1.42;;;;;;;;;;5064523;28;20048;-73
2023/08/13 08:58:56;;;;;;;4.00;1.60;;;;;;;;;;5062638;28;20048;-73
2023/08/13 09:01:26;;;;;;;4.68;1.50;;;;;;;;;;5063563;28;20048;-73
2023/08/13 09:03:57;;;;;;;2.85;1.52;;;;;;;;;;5063709;28;20102;-73
2023/08/13 09:07:04;;;;;;;8.23;1.45;;;;;;;;;;5061544;28;20063;-73
2023/08/13 09:09:36;;;;;;;1.67;1.20;;;;;;;;;;5060025;28;20060;-73
2023/08/13 09:12:06;;;;;;;2.60;1.45;;;;;;;;;;5063555;28;20056;-73
2023/08/13 09:14:38;;;;;;;1.90;1.30;;;;;;;;;;5063165;28;20746;-73
2023/08/13 09:17:12;;;;;;;4.60;1.38;;;;;;;;;;5062919;28;20418;-74
2023/08/13 09:19:44;;;;;;;2.75;1.48;;;;;;;;;;5062202;28;20055;-74
2023/08/13 09:22:16;;;;;;;3.10;1.48;;;;;;;;;;5063940;28;20048;-74
2023/08/13 09:24:48;;;;;;;5.53;1.67;;;;;;;;;;5062811;28;20511;-73
2023/08/13 09:27:19;;;;;;;3.83;1.70;;;;;;;;;;5062748;28;20053;-73
2023/08/13 09:29:54;;;;;;;4.75;1.60;;;;;;;;;;5062796;28;20056;-73
2023/08/13 09:32:24;;;;;;;5.35;1.65;;;;;;;;;;5063443;28;20431;-73
2023/08/13 09:34:54;;;;;;;2.42;1.30;;;;;;;;;;5061366;28;20435;-73
2023/08/13 09:37:25;;;;;;;3.30;1.67;;;;;;;;;;5063546;28;20040;-73
2023/08/13 09:39:58;;;;;;;3.05;1.55;;;;;;;;;;5063337;28;20510;-73
2023/08/13 09:42:32;;;;;;;4.57;1.63;;;;;;;;;;5062668;28;20423;-73
2023/08/13 09:45:03;;;;;;;3.42;1.58;;;;;;;;;;5062550;28;20041;-73
2023/08/13 09:47:36;;;;;;;4.50;1.77;;;;;;;;;;5062572;28;20048;-73
2023/08/13 09:50:07;;;;;;;4.68;1.40;;;;;;;;;;5063011;28;20459;-73
2023/08/13 09:52:43;;;;;;;2.90;1.25;;;;;;;;;;5062566;28;20045;-74
2023/08/13 09:55:19;;;;;;;6.18;1.65;;;;;;;;;;5061515;28;20051;-73
2023/08/13 09:57:52;;;;;;;2.65;1.38;;;;;;;;;;5062918;28;20106;-73
2023/08/13 10:00:31;;;;;;;2.60;1.33;;;;;;;;;;5062314;28;20806;-73
2023/08/13 10:03:04;;;;;;;4.15;1.40;;;;;;;;;;5061939;28;20416;-73
2023/08/13 10:05:38;;;;;;;5.63;1.60;;;;;;;;;;5061880;28;20052;-73
2023/08/13 10:08:10;;;;;;;2.65;1.48;;;;;;;;;;5062049;28;20045;-74
2023/08/13 10:10:42;;;;;;;3.63;1.58;;;;;;;;;;5061576;28;20490;-73
2023/08/13 10:13:13;;;;;;;3.25;1.60;;;;;;;;;;5062578;28;20044;-73
2023/08/13 10:15:46;;;;;;;2.42;1.17;;;;;;;;;;5061873;28;20048;-73
2023/08/13 10:18:17;;;;;;;4.60;1.50;;;;;;;;;;5062605;28;20055;-73
2023/08/13 10:20:47;;;;;;;4.18;1.20;;;;;;;;;;5062486;28;20415;-73
2023/08/13 10:23:19;;;;;;;4.78;1.88;;;;;;;;;;5061782;28;20052;-73
2023/08/13 10:25:56;;;;;;;2.85;1.60;;;;;;;;;;5061725;28;20067;-76
2023/08/13 10:28:31;;;;;;;3.63;1.50;;;;;;;;;;5061888;28;20415;-73
2023/08/13 10:31:25;;;;;;;4.47;1.90;;;;;;;;;;5062112;28;20103;-73
2023/08/13 10:34:14;;;;;;;2.90;1.40;;;;;;;;;;5062291;28;20427;-73
2023/08/13 10:36:44;;;;;;;2.53;1.40;;;;;;;;;;5061878;28;20044;-73
2023/08/13 10:39:41;;;;;;;4.63;1.75;;;;;;;;;;5061689;28;20049;-73
2023/08/13 10:42:37;;;;;;;3.13;1.60;;;;;;;;;;5062407;28;20141;-73
2023/08/13 10:45:14;;;;;;;4.93;1.25;;;;;;;;;;5062012;28;20059;-74
2023/08/13 10:47:48;;;;;;;5.28;1.73;;;;;;;;;;5062461;28;20049;-73
2023/08/13 10:50:32;;;;;;;19.25;2.55;;;;;;;;;;5061913;28;20056;-73
2023/08/13 10:53:13;;;;;;;7.28;2.22;;;;;;;;;;5061894;28;20052;-73
2023/08/13 10:55:48;;;;;;;9.43;2.38;;;;;;;;;;5061099;28;20056;-73
2023/08/13 10:58:23;;;;;;;14.73;3.30;;;;;;;;;;5062558;28;20048;-73
2023/08/13 11:00:59;;;;;;;12.60;2.42;;;;;;;;;;5060410;28;20037;-73
2023/08/13 11:03:45;;;;;;;4.95;2.03;;;;;;;;;;5061718;28;20045;-73
2023/08/13 11:06:18;;;;;;;4.53;3.00;;;;;;;;;;5059633;28;20047;-73
2023/08/13 11:08:48;;;;;;;9.57;3.00;;;;;;;;;;5061471;28;20339;-73
2023/08/13 11:11:19;;;;;;;7.50;2.10;;;;;;;;;;5061207;28;20084;-73
2023/08/13 11:13:50;;;;;;;6.28;2.88;;;;;;;;;;5061619;28;20044;-72
2023/08/13 11:16:21;;;;;;;4.85;2.17;;;;;;;;;;5061355;28;20054;-78
2023/08/13 11:18:52;;;;;;;9.07;2.25;;;;;;;;;;5061544;28;20045;-73
2023/08/13 11:21:24;;;;;;;6.32;2.08;;;;;;;;;;5062418;28;20060;-73
2023/08/13 11:23:55;;;;;;;4.40;1.90;;;;;;;;;;5065471;28;20044;-73
2023/08/13 11:26:27;;;;;;;5.30;2.00;;;;;;;;;;5065181;28;20055;-73
2023/08/13 11:28:59;;;;;;;8.68;3.30;;;;;;;;;;5065139;28;20483;-73
2023/08/13 11:31:29;;;;;;;8.90;2.22;;;;;;;;;;5065718;28;20060;-73
2023/08/13 11:34:00;;;;;;;5.93;2.20;;;;;;;;;;5063798;28;20055;-73
2023/08/13 11:36:31;;;;;;;5.82;2.30;;;;;;;;;;5065296;28;20052;-73
2023/08/13 11:39:03;;;;;;;5.55;2.40;;;;;;;;;;5065112;28;20048;-73
2023/08/13 11:41:33;;;;;;;6.25;2.22;;;;;;;;;;5065486;28;20045;-73
2023/08/13 11:44:04;;;;;;;4.05;2.13;;;;;;;;;;5065120;28;20044;-73
2023/08/13 11:46:55;;;;;;;5.80;2.15;;;;;;;;;;5064707;28;20050;-71
2023/08/13 11:49:28;;;;;;;4.72;2.25;;;;;;;;;;5064884;28;20415;-73
2023/08/13 11:51:58;;;;;;;5.88;2.08;;;;;;;;;;5065874;28;20452;-73
2023/08/13 11:54:29;;;;;;;3.60;1.92;;;;;;;;;;5064704;28;20067;-73
2023/08/13 11:56:59;;;;;;;5.13;2.13;;;;;;;;;;5065182;28;20111;-73
2023/08/13 11:59:30;;;;;;;7.35;2.30;;;;;;;;;;5064463;28;20044;-73
2023/08/13 12:02:02;;;;;;;7.15;2.55;;;;;;;;;;5061181;28;20061;-73
2023/08/13 12:04:33;;;;;;;8.07;2.67;;;;;;;;;;5063871;28;20366;-73
2023/08/13 12:07:09;;;;;;;4.50;2.25;;;;;;;;;;5063393;28;20044;-73
2023/08/13 12:09:40;;;;;;;6.47;2.53;;;;;;;;;;5063461;28;20044;-74
2023/08/13 12:12:11;;;;;;;3.92;1.92;;;;;;;;;;5063791;28;20045;-74
2023/08/13 12:14:45;;;;;;;9.95;2.15;;;;;;;;;;5064266;28;20056;-74
2023/08/13 12:17:16;;;;;;;4.18;2.38;;;;;;;;;;5063871;28;20040;-74
2023/08/13 12:19:47;;;;;;;5.93;2.28;;;;;;;;;;5063525;28;20044;-75
2023/08/13 12:22:18;;;;;;;4.70;2.00;;;;;;;;;;5064070;28;20064;-74
2023/08/13 12:24:48;;;;;;;8.05;1.83;;;;;;;;;;5064256;28;20404;-74
2023/08/13 12:27:19;;;;;;;4.45;2.10;;;;;;;;;;5063978;28;20408;-76
2023/08/13 12:29:50;;;;;;;3.60;2.10;;;;;;;;;;5064001;28;20533;-74
2023/08/13 12:32:21;;;;;;;7.30;2.33;;;;;;;;;;5062742;28;21155;-75
2023/08/13 12:34:51;;;;;;;6.65;2.38;;;;;;;;;;5061289;28;20044;-74
2023/08/13 12:37:22;;;;;;;7.18;2.30;;;;;;;;;;5064435;28;20051;-74
2023/08/13 12:39:53;;;;;;;6.85;2.45;;;;;;;;;;5063170;28;20048;-74
2023/08/13 12:42:23;;;;;;;6.88;2.55;;;;;;;;;;5063533;28;20048;-74
2023/08/13 12:44:53;;;;;;;8.95;3.08;;;;;;;;;;5063940;28;20607;-74
2023/08/13 12:47:24;;;;;;;7.85;2.47;;;;;;;;;;5062170;28;20048;-74
2023/08/13 12:49:54;;;;;;;4.68;2.60;;;;;;;;;;5063665;28;20048;-74
2023/08/13 12:52:26;;;;;;;7.68;2.20;;;;;;;;;;5063399;28;20500;-75
2023/08/13 12:54:57;;;;;;;5.95;2.00;;;;;;;;;;5062509;28;20044;-76
2023/08/13 12:57:28;;;;;;;8.20;2.60;;;;;;;;;;5063576;28;20053;-75
2023/08/13 12:59:59;;;;;;;8.68;2.58;;;;;;;;;;5063764;28;20040;-75
2023/08/13 13:02:30;;;;;;;5.15;2.00;;;;;;;;;;5063254;28;20406;-75
2023/08/13 13:05:01;;;;;;;7.63;2.60;;;;;;;;;;5063051;28;20041;-75
2023/08/13 13:07:31;;;;;;;8.88;3.30;;;;;;;;;;5061880;28;20514;-74
2023/08/13 13:10:03;;;;;;;3.35;2.28;;;;;;;;;;5063262;28;20056;-74
2023/08/13 13:12:35;;;;;;;9.55;2.80;;;;;;;;;;5063097;28;20056;-74
2023/08/13 13:15:06;;;;;;;7.45;3.08;;;;;;;;;;5062814;28;20531;-74
2023/08/13 13:17:36;;;;;;;4.70;2.60;;;;;;;;;;5062997;28;20041;-75
2023/08/13 13:20:12;;;;;;;4.30;1.95;;;;;;;;;;5062914;28;20048;-74
2023/08/13 13:22:43;;;;;;;4.35;2.20;;;;;;;;;;5063276;28;20048;-74
2023/08/13 13:25:13;;;;;;;10.10;1.98;;;;;;;;;;5063838;28;20087;-76
2023/08/13 13:27:44;;;;;;;5.10;2.10;;;;;;;;;;5063136;28;20044;-76
2023/08/13 13:30:14;;;;;;;7.05;1.75;;;;;;;;;;5063085;28;20448;-74
2023/08/13 13:32:45;;;;;;;4.75;2.10;;;;;;;;;;5062991;28;20048;-74
2023/08/13 13:35:16;;;;;;;3.97;1.40;;;;;;;;;;5063060;28;20044;-75
2023/08/13 13:37:46;;;;;;;3.20;1.42;;;;;;;;;;5063666;28;20048;-75
2023/08/13 13:40:17;;;;;;;6.35;1.67;;;;;;;;;;5062877;28;20053;-75
2023/08/13 13:42:49;;;;;;;4.53;1.70;;;;;;;;;;5062923;28;20052;-74
2023/08/13 13:45:20;;;;;;;3.83;1.65;;;;;;;;;;5062246;28;20044;-74
2023/08/13 13:47:50;;;;;;;3.20;1.60;;;;;;;;;;5062614;28;20052;-75
2023/08/13 13:50:22;;;;;;;6.35;1.73;;;;;;;;;;5062327;28;20041;-74
2023/08/13 13:52:52;;;;;;;4.80;1.70;;;;;;;;;;5061325;28;20499;-74
2023/08/13 13:55:34;;;;;;;5.97;1.67;;;;;;;;;;5062237;28;20068;-75
2023/08/13 13:58:05;;;;;;;3.50;1.40;;;;;;;;;;5062294;28;20048;-75
2023/08/13 14:00:36;;;;;;;3.05;1.25;;;;;;;;;;5062738;28;20044;-75
2023/08/13 14:03:07;;;;;;;4.40;1.70;;;;;;;;;;5061815;28;20870;-75
2023/08/13 14:05:37;;;;;;;5.20;1.30;;;;;;;;;;5061923;28;20055;-75
2023/08/13 14:08:08;;;;;;;3.90;1.10;;;;;;;;;;5061901;28;20119;-77
2023/08/13 14:10:39;;;;;;;4.88;1.33;;;;;;;;;;5062857;28;20040;-75
2023/08/13 14:13:11;;;;;;;8.13;1.92;;;;;;;;;;5061899;28;20415;-74
2023/08/13 14:15:42;;;;;;;8.50;4.15;;;;;;;;;;5062434;28;20059;-76
2023/08/13 14:18:13;;;;;;;3.40;1.30;;;;;;;;;;5062298;28;20040;-76
2023/08/13 14:20:44;;;;;;;6.57;1.60;;;;;;;;;;5061695;28;20079;-75
2023/08/13 14:23:14;;;;;;;3.53;1.33;;;;;;;;;;5061944;28;20057;-75
2023/08/13 14:25:45;;;;;;;3.13;1.40;;;;;;;;;;5061714;28;20047;-75
2023/08/13 14:28:15;;;;;;;4.57;1.40;;;;;;;;;;5061915;28;20059;-76
2023/08/13 14:30:45;;;;;;;3.10;1.50;;;;;;;;;;5062347;28;20048;-73
2023/08/13 14:33:17;;;;;;;3.08;1.20;;;;;;;;;;5062573;28;20051;-72
2023/08/13 14:35:47;;;;;;;4.55;1.42;;;;;;;;;;5061579;28;20381;-74
2023/08/13 14:38:18;;;;;;;4.53;1.63;;;;;;;;;;5061250;28;20468;-75
2023/08/13 14:40:49;;;;;;;4.28;2.08;;;;;;;;;;5061422;28;20055;-75
2023/08/13 14:43:20;;;;;;;8.70;2.35;;;;;;;;;;5061945;28;20059;-73
2023/08/13 14:45:50;;;;;;;7.93;2.25;;;;;;;;;;5062022;28;20530;-75
2023/08/13 14:48:21;;;;;;;4.00;0.95;;;;;;;;;;5061709;28;20094;-79
2023/08/13 14:50:52;;;;;;;2.03;1.08;;;;;;;;;;5060954;28;20570;-74
2023/08/13 14:53:22;;;;;;;6.53;1.42;;;;;;;;;;5061612;28;20049;-75
2023/08/13 14:55:52;;;;;;;3.58;1.52;;;;;;;;;;5061500;28;20048;-74
2023/08/13 14:58:24;;;;;;;7.05;1.52;;;;;;;;;;5061313;28;20557;-75
2023/08/13 15:00:55;;;;;;;5.75;1.58;;;;;;;;;;5060580;28;20504;-76
2023/08/13 15:03:25;;;;;;;3.78;1.50;;;;;;;;;;5061853;28;20515;-75
2023/08/13 15:06:03;;;;;;;5.45;1.67;;;;;;;;;;5061278;28;20040;-75
2023/08/13 15:08:34;;;;;;;4.05;1.85;;;;;;;;;;5061706;28;20055;-75
2023/08/13 15:11:05;;;;;;;3.88;1.45;;;;;;;;;;5061839;28;20059;-74
2023/08/13 15:13:37;;;;;;;5.18;1.52;;;;;;;;;;5059886;28;20080;-75
2023/08/13 15:16:07;;;;;;;5.07;1.45;;;;;;;;;;5061693;28;20051;-75